Brightwaters, New York
Current Conditions -  °F | °C
As of 3:53 AM on Friday 24 Oct 2014 (Local Time) from KFRG Reporting Station
Overcast Overcast  
Wind Chill: 52°   Ceiling: 3800
Heat Index: 52°   Visibility: 10mi
Dew Point: 45°   Wind: 13mph
Humidity: 77%   Direction: 340°NNW
Pressure: 29.75"   Gusts: 20mph
Location:  40.72°N, 73.27°W
Report Text: KFRG 240753Z AUTO 34011G17KT 10SM OVC038 11/07 A2975 RMK AO2 SLP074 T01110072
Loading
Personal Weather Stations






























Interactive Weather Map
Tropical Storm Tracking
New forecast layout! Learn more

10-Day Weather Forecast

Advertisements
Track Severe Weather on mobile